Time,TemperatureF,DewpointF,PressureIn,WindDirection,WindDirectionDegrees,WindSpeedMPH,WindSpeedGustMPH,Humidity,HourlyPrecipIn,Conditions,Clouds,dailyrainin,SoftwareType,DateUTC
2013-08-20 00:09:00,73.7,65.0,29.88,South,177,0.0,0.0,75,0.00,,,0.00,weatherlink.com 1.10,2013-08-20 05:09:00,
2013-08-20 00:24:00,73.6,66.0,29.88,SSW,202,0.0,0.0,76,0.00,,,0.00,weatherlink.com 1.10,2013-08-20 05:24:00,
2013-08-20 00:39:00,73.7,65.0,29.88,South,176,0.0,0.0,75,0.00,,,0.00,weatherlink.com 1.10,2013-08-20 05:39:00,
2013-08-20 00:54:00,73.4,65.0,29.88,South,173,0.0,0.0,76,0.00,,,0.00,weatherlink.com 1.10,2013-08-20 05:54:00,
2013-08-20 01:09:00,73.4,65.0,29.88,SSW,193,0.0,0.0,76,0.00,,,0.00,weatherlink.com 1.10,2013-08-20 06:09:00,
2013-08-20 01:24:00,73.4,65.0,29.88,South,184,0.0,0.0,76,0.00,,,0.00,weatherlink.com 1.10,2013-08-20 06:24:00,
2013-08-20 01:39:00,73.4,65.0,29.87,SSW,213,0.0,0.0,76,0.00,,,0.00,weatherlink.com 1.10,2013-08-20 06:39:00,
2013-08-20 01:54:00,73.5,66.0,29.87,SSW,198,0.0,0.0,76,0.00,,,0.00,weatherlink.com 1.10,2013-08-20 06:54:00,
2013-08-20 02:09:00,73.7,65.0,29.87,SSW,211,0.0,0.0,75,0.00,,,0.00,weatherlink.com 1.10,2013-08-20 07:09:00,
2013-08-20 02:24:00,73.7,65.0,29.87,SSW,192,0.0,0.0,75,0.00,,,0.00,weatherlink.com 1.10,2013-08-20 07:24:00,
2013-08-20 02:39:00,73.4,65.0,29.86,SSW,193,0.0,0.0,76,0.00,,,0.00,weatherlink.com 1.10,2013-08-20 07:39:00,
2013-08-20 02:54:00,73.4,65.0,29.86,South,171,0.0,0.0,76,0.00,,,0.00,weatherlink.com 1.10,2013-08-20 07:54:00,
2013-08-20 03:09:00,73.5,66.0,29.86,SW,220,0.0,0.0,76,0.00,,,0.00,weatherlink.com 1.10,2013-08-20 08:09:00,
2013-08-20 03:25:00,73.2,65.0,29.86,SSW,207,0.0,0.0,76,0.00,,,0.00,weatherlink.com 1.10,2013-08-20 08:25:00,
2013-08-20 03:40:00,72.9,65.0,29.86,SW,236,0.0,0.0,77,0.00,,,0.00,weatherlink.com 1.10,2013-08-20 08:40:00,
2013-08-20 03:55:00,72.6,65.0,29.86,SW,214,0.0,0.0,77,0.00,,,0.00,weatherlink.com 1.10,2013-08-20 08:55:00,
2013-08-20 04:10:00,72.2,65.0,29.86,SSW,197,0.0,0.0,78,0.00,,,0.00,weatherlink.com 1.10,2013-08-20 09:10:00,
2013-08-20 04:25:00,72.0,65.0,29.86,SSW,196,0.0,0.0,78,0.00,,,0.00,weatherlink.com 1.10,2013-08-20 09:25:00,
2013-08-20 04:40:00,71.9,65.0,29.86,South,181,0.0,0.0,79,0.00,,,0.00,weatherlink.com 1.10,2013-08-20 09:40:00,
2013-08-20 04:55:00,71.7,65.0,29.85,South,170,0.0,0.0,79,0.00,,,0.00,weatherlink.com 1.10,2013-08-20 09:55:00,
2013-08-20 05:10:00,71.4,65.0,29.85,South,183,0.0,0.0,80,0.00,,,0.00,weatherlink.com 1.10,2013-08-20 10:10:00,
2013-08-20 05:25:00,71.4,65.0,29.85,SSW,202,0.0,0.0,80,0.00,,,0.00,weatherlink.com 1.10,2013-08-20 10:25:00,
2013-08-20 05:40:00,71.4,65.0,29.85,South,185,0.0,0.0,81,0.00,,,0.00,weatherlink.com 1.10,2013-08-20 10:40:00,
2013-08-20 05:55:00,71.2,65.0,29.85,South,190,0.0,0.0,81,0.00,,,0.00,weatherlink.com 1.10,2013-08-20 10:55:00,
2013-08-20 06:10:00,71.1,65.0,29.85,SW,215,0.0,0.0,81,0.00,,,0.00,weatherlink.com 1.10,2013-08-20 11:10:00,
2013-08-20 06:25:00,70.9,65.0,29.85,SSE,150,0.0,0.0,82,0.00,,,0.00,weatherlink.com 1.10,2013-08-20 11:25:00,
2013-08-20 06:40:00,70.6,65.0,29.85,SSW,202,0.0,0.0,83,0.00,,,0.00,weatherlink.com 1.10,2013-08-20 11:40:00,
2013-08-20 06:55:00,70.6,65.0,29.85,South,175,0.0,0.0,83,0.00,,,0.00,weatherlink.com 1.10,2013-08-20 11:55:00,
2013-08-20 07:10:00,70.8,65.0,29.85,SSW,207,0.0,0.0,83,0.00,,,0.00,weatherlink.com 1.10,2013-08-20 12:10:00,
2013-08-20 07:25:00,71.2,66.0,29.86,SSW,202,0.0,0.0,83,0.00,,,0.00,weatherlink.com 1.10,2013-08-20 12:25:00,
2013-08-20 07:40:00,71.4,66.0,29.86,South,175,0.0,0.0,83,0.00,,,0.00,weatherlink.com 1.10,2013-08-20 12:40:00,
2013-08-20 07:55:00,71.6,66.0,29.86,South,184,0.0,0.0,83,0.00,,,0.00,weatherlink.com 1.10,2013-08-20 12:55:00,
2013-08-20 08:10:00,71.9,66.0,29.86,SSW,209,0.0,0.0,82,0.00,,,0.00,weatherlink.com 1.10,2013-08-20 13:10:00,
2013-08-20 08:25:00,72.6,67.0,29.86,SSE,152,0.0,0.0,81,0.00,,,0.00,weatherlink.com 1.10,2013-08-20 13:25:00,
2013-08-20 08:40:00,73.4,67.0,29.86,SSW,192,0.0,0.0,81,0.00,,,0.00,weatherlink.com 1.10,2013-08-20 13:40:00,
2013-08-20 08:55:00,74.3,67.0,29.86,SSW,193,0.0,0.0,79,0.00,,,0.00,weatherlink.com 1.10,2013-08-20 13:55:00,
2013-08-20 09:10:00,74.9,68.0,29.86,SW,219,0.0,0.0,78,0.00,,,0.00,weatherlink.com 1.10,2013-08-20 14:10:00,
2013-08-20 09:25:00,75.6,68.0,29.86,South,169,0.0,0.0,78,0.00,,,0.00,weatherlink.com 1.10,2013-08-20 14:25:00,
2013-08-20 09:40:00,76.3,69.0,29.86,South,185,0.0,0.0,77,0.00,,,0.00,weatherlink.com 1.10,2013-08-20 14:40:00,
2013-08-20 09:55:00,77.2,69.0,29.86,SSW,205,0.0,0.0,75,0.00,,,0.00,weatherlink.com 1.10,2013-08-20 14:55:00,
2013-08-20 10:10:00,77.8,69.0,29.86,SSW,207,0.0,0.0,74,0.00,,,0.00,weatherlink.com 1.10,2013-08-20 15:10:00,
2013-08-20 10:25:00,78.0,69.0,29.86,SSW,192,0.0,0.0,74,0.00,,,0.00,weatherlink.com 1.10,2013-08-20 15:25:00,
2013-08-20 10:40:00,78.7,69.0,29.86,SSW,207,0.0,0.0,73,0.00,,,0.00,weatherlink.com 1.10,2013-08-20 15:40:00,
2013-08-20 10:55:00,79.4,70.0,29.86,SSW,201,0.0,0.0,72,0.00,,,0.00,weatherlink.com 1.10,2013-08-20 15:55:00,
2013-08-20 11:10:00,80.5,70.0,29.86,SSW,197,0.0,0.0,70,0.00,,,0.00,weatherlink.com 1.10,2013-08-20 16:10:00,
2013-08-20 11:25:00,81.1,70.0,29.86,South,175,0.0,0.0,68,0.00,,,0.00,weatherlink.com 1.10,2013-08-20 16:25:00,
2013-08-20 11:40:00,80.6,70.0,29.86,South,169,0.0,0.0,70,0.00,,,0.00,weatherlink.com 1.10,2013-08-20 16:40:00,
2013-08-20 11:55:00,81.6,71.0,29.85,South,188,0.0,0.0,70,0.00,,,0.00,weatherlink.com 1.10,2013-08-20 16:55:00,
2013-08-20 12:10:00,83.0,70.0,29.85,South,186,0.0,0.0,64,0.00,,,0.00,weatherlink.com 1.10,2013-08-20 17:10:00,
2013-08-20 12:26:00,83.2,71.0,29.84,SSW,210,0.0,0.0,66,0.00,,,0.00,weatherlink.com 1.10,2013-08-20 17:26:00,
2013-08-20 12:41:00,84.5,70.0,29.84,SSE,154,0.0,0.0,63,0.00,,,0.00,weatherlink.com 1.10,2013-08-20 17:41:00,
2013-08-20 12:56:00,84.1,71.0,29.84,South,182,0.0,0.0,64,0.00,,,0.00,weatherlink.com 1.10,2013-08-20 17:56:00,
2013-08-20 13:11:00,84.8,71.0,29.84,South,190,0.0,0.0,63,0.00,,,0.00,weatherlink.com 1.10,2013-08-20 18:11:00,
2013-08-20 13:26:00,85.4,71.0,29.83,SW,221,0.0,0.0,62,0.00,,,0.00,weatherlink.com 1.10,2013-08-20 18:26:00,
2013-08-20 13:41:00,85.0,71.0,29.83,SSW,206,0.0,0.0,63,0.00,,,0.00,weatherlink.com 1.10,2013-08-20 18:41:00,
2013-08-20 13:56:00,85.2,71.0,29.83,SSW,207,0.0,0.0,62,0.00,,,0.00,weatherlink.com 1.10,2013-08-20 18:56:00,
2013-08-20 14:11:00,86.2,71.0,29.83,SSW,194,0.0,0.0,61,0.00,,,0.00,weatherlink.com 1.10,2013-08-20 19:11:00,
2013-08-20 14:26:00,86.2,72.0,29.83,South,182,0.0,0.0,62,0.00,,,0.00,weatherlink.com 1.10,2013-08-20 19:26:00,
2013-08-20 14:41:00,86.6,72.0,29.82,South,185,0.0,0.0,61,0.00,,,0.00,weatherlink.com 1.10,2013-08-20 19:41:00,
2013-08-20 14:56:00,86.7,72.0,29.82,SSW,196,0.0,0.0,61,0.00,,,0.00,weatherlink.com 1.10,2013-08-20 19:56:00,
2013-08-20 15:11:00,87.0,72.0,29.82,West,265,0.0,0.0,61,0.00,,,0.00,weatherlink.com 1.10,2013-08-20 20:11:00,
2013-08-20 15:26:00,88.1,72.0,29.81,SSW,207,0.0,0.0,60,0.00,,,0.00,weatherlink.com 1.10,2013-08-20 20:26:00,
2013-08-20 15:41:00,88.1,72.0,29.81,SSW,213,0.0,0.0,60,0.00,,,0.00,weatherlink.com 1.10,2013-08-20 20:41:00,
2013-08-20 15:56:00,88.3,73.0,29.80,SSW,198,0.0,0.0,60,0.00,,,0.00,weatherlink.com 1.10,2013-08-20 20:56:00,
2013-08-20 16:26:00,87.6,72.0,29.80,SSW,210,0.0,0.0,60,0.00,,,0.00,weatherlink.com 1.10,2013-08-20 21:26:00,
2013-08-20 16:41:00,87.6,72.0,29.80,South,183,0.0,0.0,61,0.00,,,0.00,weatherlink.com 1.10,2013-08-20 21:41:00,
2013-08-20 16:56:00,87.2,72.0,29.80,SSW,192,0.0,0.0,61,0.00,,,0.00,weatherlink.com 1.10,2013-08-20 21:56:00,
2013-08-20 17:11:00,87.1,73.0,29.80,South,172,0.0,0.0,63,0.00,,,0.00,weatherlink.com 1.10,2013-08-20 22:11:00,
2013-08-20 17:41:00,87.7,73.0,29.80,SSW,199,0.0,0.0,62,0.00,,,0.00,weatherlink.com 1.10,2013-08-20 22:41:00,
2013-08-20 17:56:00,87.5,73.0,29.80,SSW,203,0.0,0.0,63,0.00,,,0.00,weatherlink.com 1.10,2013-08-20 22:56:00,
2013-08-20 18:11:00,87.4,74.0,29.80,SSW,211,0.0,0.0,65,0.00,,,0.00,weatherlink.com 1.10,2013-08-20 23:11:00,
2013-08-20 18:26:00,87.1,74.0,29.80,SSW,213,0.0,0.0,65,0.00,,,0.00,weatherlink.com 1.10,2013-08-20 23:26:00,
2013-08-20 18:41:00,86.7,74.0,29.80,SSW,207,0.0,0.0,66,0.00,,,0.00,weatherlink.com 1.10,2013-08-20 23:41:00,
2013-08-20 18:56:00,85.8,73.0,29.80,SSW,192,0.0,0.0,66,0.00,,,0.00,weatherlink.com 1.10,2013-08-20 23:56:00,
2013-08-20 19:11:00,85.1,72.0,29.80,SSW,205,0.0,0.0,66,0.00,,,0.00,weatherlink.com 1.10,2013-08-21 00:11:00,
2013-08-20 19:26:00,84.3,73.0,29.80,SSW,192,0.0,0.0,68,0.00,,,0.00,weatherlink.com 1.10,2013-08-21 00:26:00,
2013-08-20 19:41:00,83.5,72.0,29.80,SSE,158,0.0,0.0,68,0.00,,,0.00,weatherlink.com 1.10,2013-08-21 00:41:00,
2013-08-20 19:56:00,83.0,72.0,29.81,SSW,199,0.0,0.0,69,0.00,,,0.00,weatherlink.com 1.10,2013-08-21 00:56:00,
2013-08-20 20:11:00,82.8,72.0,29.81,SSW,200,0.0,0.0,69,0.00,,,0.00,weatherlink.com 1.10,2013-08-21 01:11:00,
2013-08-20 20:26:00,82.5,72.0,29.81,SSW,211,0.0,0.0,70,0.00,,,0.00,weatherlink.com 1.10,2013-08-21 01:26:00,
2013-08-20 20:41:00,82.0,72.0,29.82,SSW,192,0.0,0.0,72,0.00,,,0.00,weatherlink.com 1.10,2013-08-21 01:41:00,
2013-08-20 20:56:00,81.1,72.0,29.82,South,191,0.0,0.0,74,0.00,,,0.00,weatherlink.com 1.10,2013-08-21 01:56:00,
2013-08-20 21:11:00,80.3,72.0,29.82,SSE,167,0.0,0.0,75,0.00,,,0.00,weatherlink.com 1.10,2013-08-21 02:11:00,
2013-08-20 21:26:00,79.6,71.0,29.83,South,191,0.0,0.0,76,0.00,,,0.00,weatherlink.com 1.10,2013-08-21 02:26:00,
2013-08-20 21:41:00,79.3,71.0,29.83,SSW,201,0.0,0.0,76,0.00,,,0.00,weatherlink.com 1.10,2013-08-21 02:41:00,
2013-08-20 21:56:00,78.9,72.0,29.83,South,185,0.0,0.0,78,0.00,,,0.00,weatherlink.com 1.10,2013-08-21 02:56:00,
2013-08-20 22:11:00,78.7,71.0,29.84,South,182,0.0,0.0,77,0.00,,,0.00,weatherlink.com 1.10,2013-08-21 03:11:00,
2013-08-20 22:26:00,78.2,71.0,29.84,South,180,0.0,0.0,78,0.00,,,0.00,weatherlink.com 1.10,2013-08-21 03:26:00,
2013-08-20 22:41:00,77.7,71.0,29.84,SSW,198,0.0,0.0,79,0.00,,,0.00,weatherlink.com 1.10,2013-08-21 03:41:00,
2013-08-20 22:56:00,77.2,71.0,29.84,South,184,0.0,0.0,80,0.00,,,0.00,weatherlink.com 1.10,2013-08-21 03:56:00,
2013-08-20 23:11:00,76.7,71.0,29.84,SSW,196,0.0,0.0,81,0.00,,,0.00,weatherlink.com 1.10,2013-08-21 04:11:00,
2013-08-20 23:26:00,76.4,71.0,29.84,SW,217,0.0,0.0,82,0.00,,,0.00,weatherlink.com 1.10,2013-08-21 04:26:00,
2013-08-20 23:41:00,76.1,70.0,29.84,SW,218,0.0,0.0,82,0.00,,,0.00,weatherlink.com 1.10,2013-08-21 04:41:00,
2013-08-20 23:56:00,75.8,70.0,29.84,SSW,209,0.0,0.0,82,0.00,,,0.00,weatherlink.com 1.10,2013-08-21 04:56:00,